<?xml version='1.0' encoding='utf-8'?>
<gpx xmlns="http://www.topografix.com/GPX/1/1" xmlns:xsi="http://www.w3.org/2001/XMLSchema-instance" version="v1.1.5" creator="iTravel Tech Inc. - http://www.itravel-tech.com" xsi:schemaLocation="http://www.topografix.com/GPX/1/1 http://www.topografix.com/GPX/1/1/gpx.xsd http://www.topografix.com/GPX/gpx_overlay/0/3 http://www.topografix.com/GPX/gpx_overlay/0/3/gpx_overlay.xsd http://www.topografix.com/GPX/gpx_modified/0/1 http://www.topografix.com/GPX/gpx_modified/0/1/gpx_modified.xsd">
<trk>
<name>Holux2011/04/25_09:29</name>
<trkseg>
<trkpt lat="22.315552" lon="103.662712">
<ele>743.9</ele>
<time>2011-04-25T06:29:30Z</time>
<desc>lat.=22.315552, lon.=103.662712, Alt.=769.914551m. Speed=0.252000m/h.</desc>
<speed>0.070000</speed>
</trkpt>
<trkpt lat="22.315001" lon="103.662460">
<ele>731.8</ele>
<time>2011-04-25T06:39:20Z</time>
<desc>lat.=22.315001, lon.=103.662460, Alt.=743.102051m. Speed=0.504000m/h.</desc>
<speed>0.140000</speed>
</trkpt>
<trkpt lat="22.313547" lon="103.662804">
<ele>732.6</ele>
<time>2011-04-25T06:39:40Z</time>
<desc>lat.=22.313547, lon.=103.662804, Alt.=743.508301m. Speed=35.279999m/h.</desc>
<speed>9.800000</speed>
</trkpt>
<trkpt lat="22.311769" lon="103.662575">
<ele>737.1</ele>
<time>2011-04-25T06:40:10Z</time>
<desc>lat.=22.311769, lon.=103.662575, Alt.=752.586426m. Speed=16.955999m/h.</desc>
<speed>4.710000</speed>
</trkpt>
<trkpt lat="22.311007" lon="103.662712">
<ele>737.9</ele>
<time>2011-04-25T06:40:25Z</time>
<desc>lat.=22.311007, lon.=103.662712, Alt.=756.789551m. Speed=19.944000m/h.</desc>
<speed>5.540000</speed>
</trkpt>
<trkpt lat="22.307423" lon="103.664589">
<ele>729.8</ele>
<time>2011-04-25T06:41:40Z</time>
<desc>lat.=22.307423, lon.=103.664589, Alt.=762.289551m. Speed=24.444000m/h.</desc>
<speed>6.790000</speed>
</trkpt>
<trkpt lat="22.306332" lon="103.664886">
<ele>729.7</ele>
<time>2011-04-25T06:42:00Z</time>
<desc>lat.=22.306332, lon.=103.664886, Alt.=762.273926m. Speed=19.511999m/h.</desc>
<speed>5.420000</speed>
</trkpt>
<trkpt lat="22.305531" lon="103.666069">
<ele>736.7</ele>
<time>2011-04-25T06:42:30Z</time>
<desc>lat.=22.305531, lon.=103.666069, Alt.=765.945801m. Speed=14.400000m/h.</desc>
<speed>4.000000</speed>
</trkpt>
<trkpt lat="22.304605" lon="103.666679">
<ele>738.6</ele>
<time>2011-04-25T06:43:00Z</time>
<desc>lat.=22.304605, lon.=103.666679, Alt.=757.430176m. Speed=14.544000m/h.</desc>
<speed>4.040000</speed>
</trkpt>
<trkpt lat="22.303679" lon="103.667084">
<ele>738.2</ele>
<time>2011-04-25T06:43:25Z</time>
<desc>lat.=22.303679, lon.=103.667084, Alt.=753.727051m. Speed=16.091999m/h.</desc>
<speed>4.470000</speed>
</trkpt>
<trkpt lat="22.301544" lon="103.667664">
<ele>739.7</ele>
<time>2011-04-25T06:44:10Z</time>
<desc>lat.=22.301544, lon.=103.667664, Alt.=746.898926m. Speed=14.616000m/h.</desc>
<speed>4.060000</speed>
</trkpt>
<trkpt lat="22.301010" lon="103.667969">
<ele>741.0</ele>
<time>2011-04-25T06:44:25Z</time>
<desc>lat.=22.301010, lon.=103.667969, Alt.=744.930176m. Speed=12.564000m/h.</desc>
<speed>3.490000</speed>
</trkpt>
<trkpt lat="22.300285" lon="103.668747">
<ele>742.3</ele>
<time>2011-04-25T06:44:45Z</time>
<desc>lat.=22.300285, lon.=103.668747, Alt.=743.727051m. Speed=17.604000m/h.</desc>
<speed>4.890000</speed>
</trkpt>
<trkpt lat="22.298197" lon="103.669128">
<ele>740.6</ele>
<time>2011-04-25T06:45:25Z</time>
<desc>lat.=22.298197, lon.=103.669128, Alt.=740.430176m. Speed=23.184000m/h.</desc>
<speed>6.440000</speed>
</trkpt>
<trkpt lat="22.297382" lon="103.669449">
<ele>737.3</ele>
<time>2011-04-25T06:45:40Z</time>
<desc>lat.=22.297382, lon.=103.669449, Alt.=735.742676m. Speed=7.920000m/h.</desc>
<speed>2.200000</speed>
</trkpt>
<trkpt lat="22.297003" lon="103.670280">
<ele>733.7</ele>
<time>2011-04-25T06:45:55Z</time>
<desc>lat.=22.297003, lon.=103.670280, Alt.=734.117676m. Speed=30.816000m/h.</desc>
<speed>8.560000</speed>
</trkpt>
<trkpt lat="22.296177" lon="103.670288">
<ele>732.3</ele>
<time>2011-04-25T06:46:05Z</time>
<desc>lat.=22.296177, lon.=103.670288, Alt.=731.617676m. Speed=32.220001m/h.</desc>
<speed>8.950000</speed>
</trkpt>
<trkpt lat="22.295805" lon="103.670128">
<ele>733.3</ele>
<time>2011-04-25T06:46:10Z</time>
<desc>lat.=22.295805, lon.=103.670128, Alt.=730.461426m. Speed=30.816000m/h.</desc>
<speed>8.560000</speed>
</trkpt>
<trkpt lat="22.295267" lon="103.669563">
<ele>735.2</ele>
<time>2011-04-25T06:46:20Z</time>
<desc>lat.=22.295267, lon.=103.669563, Alt.=728.758301m. Speed=27.792000m/h.</desc>
<speed>7.720000</speed>
</trkpt>
<trkpt lat="22.294935" lon="103.669487">
<ele>737.6</ele>
<time>2011-04-25T06:46:25Z</time>
<desc>lat.=22.294935, lon.=103.669487, Alt.=728.508301m. Speed=25.344000m/h.</desc>
<speed>7.040000</speed>
</trkpt>
<trkpt lat="22.294069" lon="103.670029">
<ele>728.5</ele>
<time>2011-04-25T06:46:40Z</time>
<desc>lat.=22.294069, lon.=103.670029, Alt.=727.805176m. Speed=21.780001m/h.</desc>
<speed>6.050000</speed>
</trkpt>
<trkpt lat="22.293362" lon="103.670189">
<ele>724.1</ele>
<time>2011-04-25T06:46:55Z</time>
<desc>lat.=22.293362, lon.=103.670189, Alt.=725.805176m. Speed=26.927999m/h.</desc>
<speed>7.480000</speed>
</trkpt>
<trkpt lat="22.292534" lon="103.670006">
<ele>713.3</ele>
<time>2011-04-25T06:47:05Z</time>
<desc>lat.=22.292534, lon.=103.670006, Alt.=724.102051m. Speed=41.292000m/h.</desc>
<speed>11.470000</speed>
</trkpt>
<trkpt lat="22.290726" lon="103.670059">
<ele>693.8</ele>
<time>2011-04-25T06:47:20Z</time>
<desc>lat.=22.290726, lon.=103.670059, Alt.=716.633301m. Speed=42.480000m/h.</desc>
<speed>11.800000</speed>
</trkpt>
<trkpt lat="22.289703" lon="103.670708">
<ele>681.9</ele>
<time>2011-04-25T06:47:30Z</time>
<desc>lat.=22.289703, lon.=103.670708, Alt.=711.914551m. Speed=51.048000m/h.</desc>
<speed>14.180000</speed>
</trkpt>
<trkpt lat="22.288214" lon="103.672188">
<ele>671.8</ele>
<time>2011-04-25T06:47:50Z</time>
<desc>lat.=22.288214, lon.=103.672188, Alt.=709.070801m. Speed=26.712000m/h.</desc>
<speed>7.420000</speed>
</trkpt>
<trkpt lat="22.287909" lon="103.672256">
<ele>669.5</ele>
<time>2011-04-25T06:47:55Z</time>
<desc>lat.=22.287909, lon.=103.672256, Alt.=708.867676m. Speed=23.903999m/h.</desc>
<speed>6.640000</speed>
</trkpt>
<trkpt lat="22.286888" lon="103.671692">
<ele>667.5</ele>
<time>2011-04-25T06:48:10Z</time>
<desc>lat.=22.286888, lon.=103.671692, Alt.=707.461426m. Speed=28.656000m/h.</desc>
<speed>7.960000</speed>
</trkpt>
<trkpt lat="22.286352" lon="103.671677">
<ele>669.1</ele>
<time>2011-04-25T06:48:15Z</time>
<desc>lat.=22.286352, lon.=103.671677, Alt.=704.727051m. Speed=31.931999m/h.</desc>
<speed>8.870000</speed>
</trkpt>
<trkpt lat="22.284542" lon="103.672523">
<ele>662.6</ele>
<time>2011-04-25T06:50:40Z</time>
<desc>lat.=22.284542, lon.=103.672523, Alt.=676.789551m. Speed=15.984000m/h.</desc>
<speed>4.440000</speed>
</trkpt>
<trkpt lat="22.284109" lon="103.673332">
<ele>664.9</ele>
<time>2011-04-25T06:50:55Z</time>
<desc>lat.=22.284109, lon.=103.673332, Alt.=675.117676m. Speed=24.695999m/h.</desc>
<speed>6.860000</speed>
</trkpt>
<trkpt lat="22.283716" lon="103.673698">
<ele>663.3</ele>
<time>2011-04-25T06:51:05Z</time>
<desc>lat.=22.283716, lon.=103.673698, Alt.=673.008301m. Speed=15.660000m/h.</desc>
<speed>4.350000</speed>
</trkpt>
<trkpt lat="22.283522" lon="103.674416">
<ele>662.9</ele>
<time>2011-04-25T06:55:50Z</time>
<desc>lat.=22.283522, lon.=103.674416, Alt.=674.242676m. Speed=13.392000m/h.</desc>
<speed>3.720000</speed>
</trkpt>
<trkpt lat="22.282537" lon="103.675888">
<ele>665.8</ele>
<time>2011-04-25T06:56:25Z</time>
<desc>lat.=22.282537, lon.=103.675888, Alt.=673.477051m. Speed=13.068000m/h.</desc>
<speed>3.630000</speed>
</trkpt>
<trkpt lat="22.281582" lon="103.677979">
<ele>674.5</ele>
<time>2011-04-25T06:57:40Z</time>
<desc>lat.=22.281582, lon.=103.677979, Alt.=675.273926m. Speed=11.412000m/h.</desc>
<speed>3.170000</speed>
</trkpt>
<trkpt lat="22.280865" lon="103.678482">
<ele>677.1</ele>
<time>2011-04-25T06:58:10Z</time>
<desc>lat.=22.280865, lon.=103.678482, Alt.=685.445801m. Speed=8.604000m/h.</desc>
<speed>2.390000</speed>
</trkpt>
<trkpt lat="22.280268" lon="103.679298">
<ele>674.6</ele>
<time>2011-04-25T06:58:35Z</time>
<desc>lat.=22.280268, lon.=103.679298, Alt.=690.898926m. Speed=21.636000m/h.</desc>
<speed>6.010000</speed>
</trkpt>
<trkpt lat="22.278257" lon="103.680824">
<ele>671.4</ele>
<time>2011-04-25T06:59:15Z</time>
<desc>lat.=22.278257, lon.=103.680824, Alt.=699.289551m. Speed=17.459999m/h.</desc>
<speed>4.850000</speed>
</trkpt>
<trkpt lat="22.275383" lon="103.684006">
<ele>658.7</ele>
<time>2011-04-25T07:00:10Z</time>
<desc>lat.=22.275383, lon.=103.684006, Alt.=701.305176m. Speed=14.724000m/h.</desc>
<speed>4.090000</speed>
</trkpt>
<trkpt lat="22.269552" lon="103.688858">
<ele>689.2</ele>
<time>2011-04-25T07:04:25Z</time>
<desc>lat.=22.269552, lon.=103.688858, Alt.=679.523926m. Speed=8.460000m/h.</desc>
<speed>2.350000</speed>
</trkpt>
<trkpt lat="22.266045" lon="103.693253">
<ele>703.3</ele>
<time>2011-04-25T07:07:00Z</time>
<desc>lat.=22.266045, lon.=103.693253, Alt.=693.039551m. Speed=9.540000m/h.</desc>
<speed>2.650000</speed>
</trkpt>
<trkpt lat="22.265820" lon="103.693413">
<ele>708.7</ele>
<time>2011-04-25T07:07:10Z</time>
<desc>lat.=22.265820, lon.=103.693413, Alt.=696.086426m. Speed=11.952000m/h.</desc>
<speed>3.320000</speed>
</trkpt>
<trkpt lat="22.264984" lon="103.693535">
<ele>703.7</ele>
<time>2011-04-25T07:07:35Z</time>
<desc>lat.=22.264984, lon.=103.693535, Alt.=699.273926m. Speed=13.680000m/h.</desc>
<speed>3.800000</speed>
</trkpt>
<trkpt lat="22.264307" lon="103.694443">
<ele>698.9</ele>
<time>2011-04-25T07:08:05Z</time>
<desc>lat.=22.264307, lon.=103.694443, Alt.=695.930176m. Speed=12.924000m/h.</desc>
<speed>3.590000</speed>
</trkpt>
<trkpt lat="22.264248" lon="103.694962">
<ele>692.6</ele>
<time>2011-04-25T07:08:25Z</time>
<desc>lat.=22.264248, lon.=103.694962, Alt.=699.555176m. Speed=5.832000m/h.</desc>
<speed>1.620000</speed>
</trkpt>
<trkpt lat="22.264715" lon="103.695793">
<ele>704.1</ele>
<time>2011-04-25T07:09:00Z</time>
<desc>lat.=22.264715, lon.=103.695793, Alt.=701.742676m. Speed=11.484000m/h.</desc>
<speed>3.190000</speed>
</trkpt>
<trkpt lat="22.264721" lon="103.696342">
<ele>705.2</ele>
<time>2011-04-25T07:09:20Z</time>
<desc>lat.=22.264721, lon.=103.696342, Alt.=702.680176m. Speed=10.548000m/h.</desc>
<speed>2.930000</speed>
</trkpt>
<trkpt lat="22.265003" lon="103.697014">
<ele>722.3</ele>
<time>2011-04-25T07:09:50Z</time>
<desc>lat.=22.265003, lon.=103.697014, Alt.=708.211426m. Speed=6.300000m/h.</desc>
<speed>1.750000</speed>
</trkpt>
<trkpt lat="22.264523" lon="103.697540">
<ele>722.0</ele>
<time>2011-04-25T07:10:20Z</time>
<desc>lat.=22.264523, lon.=103.697540, Alt.=716.430176m. Speed=7.308000m/h.</desc>
<speed>2.030000</speed>
</trkpt>
<trkpt lat="22.264044" lon="103.698425">
<ele>733.8</ele>
<time>2011-04-25T07:11:00Z</time>
<desc>lat.=22.264044, lon.=103.698425, Alt.=722.539551m. Speed=10.692000m/h.</desc>
<speed>2.970000</speed>
</trkpt>
<trkpt lat="22.263458" lon="103.698708">
<ele>732.1</ele>
<time>2011-04-25T07:11:25Z</time>
<desc>lat.=22.263458, lon.=103.698708, Alt.=724.477051m. Speed=10.044000m/h.</desc>
<speed>2.790000</speed>
</trkpt>
<trkpt lat="22.263021" lon="103.699257">
<ele>739.3</ele>
<time>2011-04-25T07:11:50Z</time>
<desc>lat.=22.263021, lon.=103.699257, Alt.=729.023926m. Speed=11.736000m/h.</desc>
<speed>3.260000</speed>
</trkpt>
<trkpt lat="22.262379" lon="103.699287">
<ele>740.6</ele>
<time>2011-04-25T07:12:15Z</time>
<desc>lat.=22.262379, lon.=103.699287, Alt.=742.930176m. Speed=9.504000m/h.</desc>
<speed>2.640000</speed>
</trkpt>
<trkpt lat="22.262096" lon="103.699493">
<ele>727.7</ele>
<time>2011-04-25T07:13:15Z</time>
<desc>lat.=22.262096, lon.=103.699493, Alt.=741.039551m. Speed=0.000000m/h.</desc>
<speed>0.000000</speed>
</trkpt>
<trkpt lat="22.262705" lon="103.700310">
<ele>731.8</ele>
<time>2011-04-25T07:17:40Z</time>
<desc>lat.=22.262705, lon.=103.700310, Alt.=741.773926m. Speed=13.068000m/h.</desc>
<speed>3.630000</speed>
</trkpt>
<trkpt lat="22.262691" lon="103.701599">
<ele>733.1</ele>
<time>2011-04-25T07:18:10Z</time>
<desc>lat.=22.262691, lon.=103.701599, Alt.=735.586426m. Speed=7.920000m/h.</desc>
<speed>2.200000</speed>
</trkpt>
<trkpt lat="22.262493" lon="103.702171">
<ele>736.7</ele>
<time>2011-04-25T07:21:15Z</time>
<desc>lat.=22.262493, lon.=103.702171, Alt.=733.945801m. Speed=19.152000m/h.</desc>
<speed>5.320000</speed>
</trkpt>
<trkpt lat="22.261988" lon="103.702446">
<ele>747.2</ele>
<time>2011-04-25T07:21:25Z</time>
<desc>lat.=22.261988, lon.=103.702446, Alt.=734.758301m. Speed=17.496000m/h.</desc>
<speed>4.860000</speed>
</trkpt>
<trkpt lat="22.260958" lon="103.701538">
<ele>754.1</ele>
<time>2011-04-25T07:22:10Z</time>
<desc>lat.=22.260958, lon.=103.701538, Alt.=750.227051m. Speed=8.820000m/h.</desc>
<speed>2.450000</speed>
</trkpt>
<trkpt lat="22.259954" lon="103.701912">
<ele>752.3</ele>
<time>2011-04-25T07:22:50Z</time>
<desc>lat.=22.259954, lon.=103.701912, Alt.=753.258301m. Speed=7.164000m/h.</desc>
<speed>1.990000</speed>
</trkpt>
<trkpt lat="22.259655" lon="103.702141">
<ele>751.1</ele>
<time>2011-04-25T07:23:20Z</time>
<desc>lat.=22.259655, lon.=103.702141, Alt.=760.570801m. Speed=0.252000m/h.</desc>
<speed>0.070000</speed>
</trkpt>
<trkpt lat="22.259352" lon="103.702728">
<ele>759.1</ele>
<time>2011-04-25T07:26:10Z</time>
<desc>lat.=22.259352, lon.=103.702728, Alt.=760.711426m. Speed=11.448000m/h.</desc>
<speed>3.180000</speed>
</trkpt>
<trkpt lat="22.258425" lon="103.703499">
<ele>760.4</ele>
<time>2011-04-25T07:26:45Z</time>
<desc>lat.=22.258425, lon.=103.703499, Alt.=760.539551m. Speed=18.468000m/h.</desc>
<speed>5.130000</speed>
</trkpt>
<trkpt lat="22.258204" lon="103.705200">
<ele>748.1</ele>
<time>2011-04-25T07:27:05Z</time>
<desc>lat.=22.258204, lon.=103.705200, Alt.=747.305176m. Speed=37.476002m/h.</desc>
<speed>10.410000</speed>
</trkpt>
<trkpt lat="22.257784" lon="103.705559">
<ele>748.6</ele>
<time>2011-04-25T07:27:10Z</time>
<desc>lat.=22.257784, lon.=103.705559, Alt.=746.914551m. Speed=41.472000m/h.</desc>
<speed>11.520000</speed>
</trkpt>
<trkpt lat="22.256828" lon="103.705803">
<ele>748.2</ele>
<time>2011-04-25T07:27:20Z</time>
<desc>lat.=22.256828, lon.=103.705803, Alt.=745.711426m. Speed=37.835999m/h.</desc>
<speed>10.510000</speed>
</trkpt>
<trkpt lat="22.255526" lon="103.705612">
<ele>737.4</ele>
<time>2011-04-25T07:27:35Z</time>
<desc>lat.=22.255526, lon.=103.705612, Alt.=742.805176m. Speed=34.848000m/h.</desc>
<speed>9.680000</speed>
</trkpt>
<trkpt lat="22.255140" lon="103.705856">
<ele>733.3</ele>
<time>2011-04-25T07:27:40Z</time>
<desc>lat.=22.255140, lon.=103.705856, Alt.=741.445801m. Speed=36.972000m/h.</desc>
<speed>10.270000</speed>
</trkpt>
<trkpt lat="22.254580" lon="103.706696">
<ele>732.6</ele>
<time>2011-04-25T07:27:50Z</time>
<desc>lat.=22.254580, lon.=103.706696, Alt.=736.289551m. Speed=33.984001m/h.</desc>
<speed>9.440000</speed>
</trkpt>
<trkpt lat="22.253628" lon="103.707550">
<ele>724.3</ele>
<time>2011-04-25T07:28:05Z</time>
<desc>lat.=22.253628, lon.=103.707550, Alt.=732.367676m. Speed=31.823999m/h.</desc>
<speed>8.840000</speed>
</trkpt>
<trkpt lat="22.253017" lon="103.708908">
<ele>730.4</ele>
<time>2011-04-25T07:28:25Z</time>
<desc>lat.=22.253017, lon.=103.708908, Alt.=725.555176m. Speed=20.844000m/h.</desc>
<speed>5.790000</speed>
</trkpt>
<trkpt lat="22.250519" lon="103.711014">
<ele>705.7</ele>
<time>2011-04-25T07:29:00Z</time>
<desc>lat.=22.250519, lon.=103.711014, Alt.=720.961426m. Speed=42.695999m/h.</desc>
<speed>11.860000</speed>
</trkpt>
<trkpt lat="22.250242" lon="103.711494">
<ele>698.9</ele>
<time>2011-04-25T07:29:05Z</time>
<desc>lat.=22.250242, lon.=103.711494, Alt.=712.945801m. Speed=40.680000m/h.</desc>
<speed>11.300000</speed>
</trkpt>
<trkpt lat="22.250206" lon="103.712082">
<ele>699.3</ele>
<time>2011-04-25T07:29:10Z</time>
<desc>lat.=22.250206, lon.=103.712082, Alt.=705.836426m. Speed=44.532001m/h.</desc>
<speed>12.370000</speed>
</trkpt>
<trkpt lat="22.249899" lon="103.712509">
<ele>696.8</ele>
<time>2011-04-25T07:29:15Z</time>
<desc>lat.=22.249899, lon.=103.712509, Alt.=699.914551m. Speed=42.408001m/h.</desc>
<speed>11.780000</speed>
</trkpt>
<trkpt lat="22.249403" lon="103.712852">
<ele>689.3</ele>
<time>2011-04-25T07:29:20Z</time>
<desc>lat.=22.249403, lon.=103.712852, Alt.=695.773926m. Speed=48.348000m/h.</desc>
<speed>13.430000</speed>
</trkpt>
<trkpt lat="22.247292" lon="103.715347">
<ele>669.1</ele>
<time>2011-04-25T07:29:45Z</time>
<desc>lat.=22.247292, lon.=103.715347, Alt.=671.008301m. Speed=43.091999m/h.</desc>
<speed>11.970000</speed>
</trkpt>
<trkpt lat="22.245756" lon="103.716248">
<ele>655.0</ele>
<time>2011-04-25T07:30:00Z</time>
<desc>lat.=22.245756, lon.=103.716248, Alt.=659.273926m. Speed=44.352001m/h.</desc>
<speed>12.320000</speed>
</trkpt>
<trkpt lat="22.244337" lon="103.718483">
<ele>636.8</ele>
<time>2011-04-25T07:32:15Z</time>
<desc>lat.=22.244337, lon.=103.718483, Alt.=644.008301m. Speed=43.380001m/h.</desc>
<speed>12.050000</speed>
</trkpt>
<trkpt lat="22.241863" lon="103.720360">
<ele>614.0</ele>
<time>2011-04-25T07:32:40Z</time>
<desc>lat.=22.241863, lon.=103.720360, Alt.=622.961426m. Speed=43.956001m/h.</desc>
<speed>12.210000</speed>
</trkpt>
<trkpt lat="22.241499" lon="103.721695">
<ele>614.4</ele>
<time>2011-04-25T07:32:55Z</time>
<desc>lat.=22.241499, lon.=103.721695, Alt.=620.695801m. Speed=28.836000m/h.</desc>
<speed>8.010000</speed>
</trkpt>
<trkpt lat="22.241207" lon="103.722000">
<ele>612.1</ele>
<time>2011-04-25T07:33:00Z</time>
<desc>lat.=22.241207, lon.=103.722000, Alt.=620.617676m. Speed=35.891998m/h.</desc>
<speed>9.970000</speed>
</trkpt>
<trkpt lat="22.240763" lon="103.722229">
<ele>612.8</ele>
<time>2011-04-25T07:33:05Z</time>
<desc>lat.=22.240763, lon.=103.722229, Alt.=620.930176m. Speed=39.995998m/h.</desc>
<speed>11.110000</speed>
</trkpt>
<trkpt lat="22.239790" lon="103.722168">
<ele>618.0</ele>
<time>2011-04-25T07:33:15Z</time>
<desc>lat.=22.239790, lon.=103.722168, Alt.=621.258301m. Speed=38.051998m/h.</desc>
<speed>10.569999</speed>
</trkpt>
<trkpt lat="22.237226" lon="103.720924">
<ele>609.7</ele>
<time>2011-04-25T07:33:45Z</time>
<desc>lat.=22.237226, lon.=103.720924, Alt.=613.180176m. Speed=38.844002m/h.</desc>
<speed>10.790000</speed>
</trkpt>
<trkpt lat="22.235147" lon="103.720177">
<ele>602.3</ele>
<time>2011-04-25T07:34:10Z</time>
<desc>lat.=22.235147, lon.=103.720177, Alt.=603.477051m. Speed=34.164001m/h.</desc>
<speed>9.490000</speed>
</trkpt>
<trkpt lat="22.233824" lon="103.720680">
<ele>590.3</ele>
<time>2011-04-25T07:34:25Z</time>
<desc>lat.=22.233824, lon.=103.720680, Alt.=603.102051m. Speed=38.556000m/h.</desc>
<speed>10.710000</speed>
</trkpt>
<trkpt lat="22.231535" lon="103.720955">
<ele>584.8</ele>
<time>2011-04-25T07:34:50Z</time>
<desc>lat.=22.231535, lon.=103.720955, Alt.=602.805176m. Speed=35.279999m/h.</desc>
<speed>9.800000</speed>
</trkpt>
<trkpt lat="22.227825" lon="103.721695">
<ele>580.1</ele>
<time>2011-04-25T07:35:40Z</time>
<desc>lat.=22.227825, lon.=103.721695, Alt.=602.711426m. Speed=10.152000m/h.</desc>
<speed>2.820000</speed>
</trkpt>
<trkpt lat="22.227671" lon="103.722717">
<ele>578.4</ele>
<time>2011-04-25T07:36:10Z</time>
<desc>lat.=22.227671, lon.=103.722717, Alt.=580.492676m. Speed=13.032000m/h.</desc>
<speed>3.620000</speed>
</trkpt>
<trkpt lat="22.227041" lon="103.724045">
<ele>582.9</ele>
<time>2011-04-25T07:36:55Z</time>
<desc>lat.=22.227041, lon.=103.724045, Alt.=586.461426m. Speed=10.548000m/h.</desc>
<speed>2.930000</speed>
</trkpt>
<trkpt lat="22.227186" lon="103.727699">
<ele>594.2</ele>
<time>2011-04-25T07:39:15Z</time>
<desc>lat.=22.227186, lon.=103.727699, Alt.=593.961426m. Speed=9.180000m/h.</desc>
<speed>2.550000</speed>
</trkpt>
<trkpt lat="22.226498" lon="103.729691">
<ele>607.7</ele>
<time>2011-04-25T07:40:35Z</time>
<desc>lat.=22.226498, lon.=103.729691, Alt.=608.680176m. Speed=7.740000m/h.</desc>
<speed>2.150000</speed>
</trkpt>
<trkpt lat="22.226540" lon="103.730042">
<ele>609.7</ele>
<time>2011-04-25T07:40:45Z</time>
<desc>lat.=22.226540, lon.=103.730042, Alt.=619.539551m. Speed=6.624000m/h.</desc>
<speed>1.840000</speed>
</trkpt>
<trkpt lat="22.226160" lon="103.730476">
<ele>610.2</ele>
<time>2011-04-25T07:41:10Z</time>
<desc>lat.=22.226160, lon.=103.730476, Alt.=621.633301m. Speed=4.248000m/h.</desc>
<speed>1.180000</speed>
</trkpt>
<trkpt lat="22.225737" lon="103.731354">
<ele>609.9</ele>
<time>2011-04-25T07:41:45Z</time>
<desc>lat.=22.225737, lon.=103.731354, Alt.=615.633301m. Speed=10.872000m/h.</desc>
<speed>3.020000</speed>
</trkpt>
<trkpt lat="22.225517" lon="103.732643">
<ele>610.6</ele>
<time>2011-04-25T07:47:05Z</time>
<desc>lat.=22.225517, lon.=103.732643, Alt.=612.023926m. Speed=12.672000m/h.</desc>
<speed>3.520000</speed>
</trkpt>
<trkpt lat="22.223644" lon="103.735214">
<ele>615.2</ele>
<time>2011-04-25T07:48:25Z</time>
<desc>lat.=22.223644, lon.=103.735214, Alt.=613.883301m. Speed=7.452000m/h.</desc>
<speed>2.070000</speed>
</trkpt>
<trkpt lat="22.223475" lon="103.736679">
<ele>619.8</ele>
<time>2011-04-25T07:49:05Z</time>
<desc>lat.=22.223475, lon.=103.736679, Alt.=614.945801m. Speed=18.288000m/h.</desc>
<speed>5.080000</speed>
</trkpt>
<trkpt lat="22.221529" lon="103.739578">
<ele>628.7</ele>
<time>2011-04-25T07:51:10Z</time>
<desc>lat.=22.221529, lon.=103.739578, Alt.=632.289551m. Speed=8.280000m/h.</desc>
<speed>2.300000</speed>
</trkpt>
<trkpt lat="22.220758" lon="103.741714">
<ele>636.1</ele>
<time>2011-04-25T07:52:35Z</time>
<desc>lat.=22.220758, lon.=103.741714, Alt.=635.461426m. Speed=18.035999m/h.</desc>
<speed>5.010000</speed>
</trkpt>
<trkpt lat="22.217607" lon="103.742188">
<ele>640.3</ele>
<time>2011-04-25T07:53:45Z</time>
<desc>lat.=22.217607, lon.=103.742188, Alt.=644.961426m. Speed=22.788000m/h.</desc>
<speed>6.330000</speed>
</trkpt>
<trkpt lat="22.216602" lon="103.741661">
<ele>645.6</ele>
<time>2011-04-25T07:54:05Z</time>
<desc>lat.=22.216602, lon.=103.741661, Alt.=642.539551m. Speed=17.208000m/h.</desc>
<speed>4.780000</speed>
</trkpt>
<trkpt lat="22.215635" lon="103.741470">
<ele>646.2</ele>
<time>2011-04-25T07:54:30Z</time>
<desc>lat.=22.215635, lon.=103.741470, Alt.=638.148926m. Speed=14.112000m/h.</desc>
<speed>3.920000</speed>
</trkpt>
<trkpt lat="22.214855" lon="103.741684">
<ele>643.6</ele>
<time>2011-04-25T07:54:50Z</time>
<desc>lat.=22.214855, lon.=103.741684, Alt.=638.805176m. Speed=19.728001m/h.</desc>
<speed>5.480000</speed>
</trkpt>
<trkpt lat="22.213991" lon="103.742210">
<ele>641.7</ele>
<time>2011-04-25T07:55:05Z</time>
<desc>lat.=22.213991, lon.=103.742210, Alt.=636.883301m. Speed=21.275999m/h.</desc>
<speed>5.910000</speed>
</trkpt>
<trkpt lat="22.209179" lon="103.741943">
<ele>635.2</ele>
<time>2011-04-25T07:56:40Z</time>
<desc>lat.=22.209179, lon.=103.741943, Alt.=622.977051m. Speed=16.308001m/h.</desc>
<speed>4.530000</speed>
</trkpt>
<trkpt lat="22.207455" lon="103.742058">
<ele>629.9</ele>
<time>2011-04-25T07:57:05Z</time>
<desc>lat.=22.207455, lon.=103.742058, Alt.=623.461426m. Speed=27.648001m/h.</desc>
<speed>7.680000</speed>
</trkpt>
<trkpt lat="22.202049" lon="103.744064">
<ele>620.5</ele>
<time>2011-04-25T07:58:25Z</time>
<desc>lat.=22.202049, lon.=103.744064, Alt.=622.008301m. Speed=19.799999m/h.</desc>
<speed>5.500000</speed>
</trkpt>
<trkpt lat="22.199947" lon="103.744469">
<ele>615.0</ele>
<time>2011-04-25T07:59:00Z</time>
<desc>lat.=22.199947, lon.=103.744469, Alt.=618.352051m. Speed=19.007999m/h.</desc>
<speed>5.280000</speed>
</trkpt>
<trkpt lat="22.196304" lon="103.745758">
<ele>595.7</ele>
<time>2011-04-25T08:00:10Z</time>
<desc>lat.=22.196304, lon.=103.745758, Alt.=601.555176m. Speed=40.320000m/h.</desc>
<speed>11.200000</speed>
</trkpt>
<trkpt lat="22.195808" lon="103.745605">
<ele>596.3</ele>
<time>2011-04-25T08:00:15Z</time>
<desc>lat.=22.195808, lon.=103.745605, Alt.=597.820801m. Speed=40.212002m/h.</desc>
<speed>11.170001</speed>
</trkpt>
<trkpt lat="22.195024" lon="103.744949">
<ele>588.5</ele>
<time>2011-04-25T08:00:25Z</time>
<desc>lat.=22.195024, lon.=103.744949, Alt.=589.820801m. Speed=39.167999m/h.</desc>
<speed>10.880000</speed>
</trkpt>
<trkpt lat="22.194511" lon="103.744934">
<ele>584.0</ele>
<time>2011-04-25T08:00:30Z</time>
<desc>lat.=22.194511, lon.=103.744934, Alt.=586.758301m. Speed=43.956001m/h.</desc>
<speed>12.210000</speed>
</trkpt>
<trkpt lat="22.193975" lon="103.745125">
<ele>581.0</ele>
<time>2011-04-25T08:00:35Z</time>
<desc>lat.=22.193975, lon.=103.745125, Alt.=583.664551m. Speed=46.619999m/h.</desc>
<speed>12.950000</speed>
</trkpt>
<trkpt lat="22.192402" lon="103.746239">
<ele>572.4</ele>
<time>2011-04-25T08:00:50Z</time>
<desc>lat.=22.192402, lon.=103.746239, Alt.=577.945801m. Speed=47.520000m/h.</desc>
<speed>13.200000</speed>
</trkpt>
<trkpt lat="22.187244" lon="103.748337">
<ele>566.4</ele>
<time>2011-04-25T08:01:55Z</time>
<desc>lat.=22.187244, lon.=103.748337, Alt.=565.523926m. Speed=17.820000m/h.</desc>
<speed>4.950000</speed>
</trkpt>
<trkpt lat="22.185408" lon="103.748627">
<ele>562.6</ele>
<time>2011-04-25T08:02:45Z</time>
<desc>lat.=22.185408, lon.=103.748627, Alt.=568.477051m. Speed=18.000000m/h.</desc>
<speed>5.000000</speed>
</trkpt>
<trkpt lat="22.181711" lon="103.748398">
<ele>567.4</ele>
<time>2011-04-25T08:04:05Z</time>
<desc>lat.=22.181711, lon.=103.748398, Alt.=566.930176m. Speed=12.060000m/h.</desc>
<speed>3.350000</speed>
</trkpt>
<trkpt lat="22.181351" lon="103.748535">
<ele>570.8</ele>
<time>2011-04-25T08:04:20Z</time>
<desc>lat.=22.181351, lon.=103.748535, Alt.=569.680176m. Speed=4.536000m/h.</desc>
<speed>1.260000</speed>
</trkpt>
<trkpt lat="22.180223" lon="103.749481">
<ele>573.5</ele>
<time>2011-04-25T08:05:15Z</time>
<desc>lat.=22.180223, lon.=103.749481, Alt.=578.461426m. Speed=22.788000m/h.</desc>
<speed>6.330000</speed>
</trkpt>
<trkpt lat="22.178558" lon="103.750038">
<ele>570.4</ele>
<time>2011-04-25T08:05:40Z</time>
<desc>lat.=22.178558, lon.=103.750038, Alt.=564.164551m. Speed=24.804001m/h.</desc>
<speed>6.890000</speed>
</trkpt>
<trkpt lat="22.176388" lon="103.751335">
<ele>569.3</ele>
<time>2011-04-25T08:06:25Z</time>
<desc>lat.=22.176388, lon.=103.751335, Alt.=569.430176m. Speed=15.732000m/h.</desc>
<speed>4.370000</speed>
</trkpt>
<trkpt lat="22.175108" lon="103.752296">
<ele>570.6</ele>
<time>2011-04-25T08:11:25Z</time>
<desc>lat.=22.175108, lon.=103.752296, Alt.=570.023926m. Speed=4.932000m/h.</desc>
<speed>1.370000</speed>
</trkpt>
<trkpt lat="22.174463" lon="103.753128">
<ele>573.0</ele>
<time>2011-04-25T08:14:05Z</time>
<desc>lat.=22.174463, lon.=103.753128, Alt.=589.461426m. Speed=0.180000m/h.</desc>
<speed>0.050000</speed>
</trkpt>
<trkpt lat="22.173168" lon="103.754021">
<ele>574.8</ele>
<time>2011-04-25T08:16:10Z</time>
<desc>lat.=22.173168, lon.=103.754021, Alt.=584.008301m. Speed=11.664000m/h.</desc>
<speed>3.240000</speed>
</trkpt>
<trkpt lat="22.172905" lon="103.754311">
<ele>575.6</ele>
<time>2011-04-25T08:16:25Z</time>
<desc>lat.=22.172905, lon.=103.754311, Alt.=583.820801m. Speed=1.692000m/h.</desc>
<speed>0.470000</speed>
</trkpt>
<trkpt lat="22.173031" lon="103.754333">
<ele>576.9</ele>
<time>2011-04-25T08:17:15Z</time>
<desc>lat.=22.173031, lon.=103.754333, Alt.=587.742676m. Speed=0.900000m/h.</desc>
<speed>0.250000</speed>
</trkpt>
<trkpt lat="22.172586" lon="103.754532">
<ele>576.0</ele>
<time>2011-04-25T08:17:40Z</time>
<desc>lat.=22.172586, lon.=103.754532, Alt.=589.289551m. Speed=9.504000m/h.</desc>
<speed>2.640000</speed>
</trkpt>
<trkpt lat="22.170631" lon="103.756172">
<ele>578.5</ele>
<time>2011-04-25T08:19:50Z</time>
<desc>lat.=22.170631, lon.=103.756172, Alt.=593.148926m. Speed=10.008000m/h.</desc>
<speed>2.780000</speed>
</trkpt>
<trkpt lat="22.170298" lon="103.756744">
<ele>580.3</ele>
<time>2011-04-25T08:20:20Z</time>
<desc>lat.=22.170298, lon.=103.756744, Alt.=600.555176m. Speed=2.124000m/h.</desc>
<speed>0.590000</speed>
</trkpt>
<trkpt lat="22.170017" lon="103.756920">
<ele>581.0</ele>
<time>2011-04-25T08:20:45Z</time>
<desc>lat.=22.170017, lon.=103.756920, Alt.=599.289551m. Speed=2.124000m/h.</desc>
<speed>0.590000</speed>
</trkpt>
<trkpt lat="22.165928" lon="103.758232">
<ele>584.7</ele>
<time>2011-04-25T08:25:55Z</time>
<desc>lat.=22.165928, lon.=103.758232, Alt.=582.805176m. Speed=8.532000m/h.</desc>
<speed>2.370000</speed>
</trkpt>
<trkpt lat="22.163601" lon="103.759651">
<ele>583.6</ele>
<time>2011-04-25T08:27:50Z</time>
<desc>lat.=22.163601, lon.=103.759651, Alt.=590.133301m. Speed=17.459999m/h.</desc>
<speed>4.850000</speed>
</trkpt>
<trkpt lat="22.162552" lon="103.759972">
<ele>582.0</ele>
<time>2011-04-25T08:28:15Z</time>
<desc>lat.=22.162552, lon.=103.759972, Alt.=581.602051m. Speed=20.304001m/h.</desc>
<speed>5.640000</speed>
</trkpt>
<trkpt lat="22.161934" lon="103.760841">
<ele>577.1</ele>
<time>2011-04-25T08:28:30Z</time>
<desc>lat.=22.161934, lon.=103.760841, Alt.=576.008301m. Speed=31.752001m/h.</desc>
<speed>8.820000</speed>
</trkpt>
<trkpt lat="22.160944" lon="103.762825">
<ele>579.6</ele>
<time>2011-04-25T08:29:00Z</time>
<desc>lat.=22.160944, lon.=103.762825, Alt.=576.508301m. Speed=20.844000m/h.</desc>
<speed>5.790000</speed>
</trkpt>
<trkpt lat="22.160576" lon="103.763191">
<ele>580.3</ele>
<time>2011-04-25T08:29:10Z</time>
<desc>lat.=22.160576, lon.=103.763191, Alt.=578.039551m. Speed=19.980000m/h.</desc>
<speed>5.550000</speed>
</trkpt>
<trkpt lat="22.160015" lon="103.763237">
<ele>577.2</ele>
<time>2011-04-25T08:29:20Z</time>
<desc>lat.=22.160015, lon.=103.763237, Alt.=575.508301m. Speed=22.572001m/h.</desc>
<speed>6.270000</speed>
</trkpt>
<trkpt lat="22.158714" lon="103.762489">
<ele>576.6</ele>
<time>2011-04-25T08:29:45Z</time>
<desc>lat.=22.158714, lon.=103.762489, Alt.=573.727051m. Speed=22.032000m/h.</desc>
<speed>6.120000</speed>
</trkpt>
<trkpt lat="22.158133" lon="103.762604">
<ele>575.7</ele>
<time>2011-04-25T08:29:55Z</time>
<desc>lat.=22.158133, lon.=103.762604, Alt.=575.398926m. Speed=23.112000m/h.</desc>
<speed>6.420000</speed>
</trkpt>
<trkpt lat="22.157129" lon="103.763145">
<ele>575.8</ele>
<time>2011-04-25T08:30:15Z</time>
<desc>lat.=22.157129, lon.=103.763145, Alt.=575.086426m. Speed=21.996000m/h.</desc>
<speed>6.110000</speed>
</trkpt>
<trkpt lat="22.154657" lon="103.764946">
<ele>586.2</ele>
<time>2011-04-25T08:31:45Z</time>
<desc>lat.=22.154657, lon.=103.764946, Alt.=586.383301m. Speed=12.420000m/h.</desc>
<speed>3.450000</speed>
</trkpt>
<trkpt lat="22.154444" lon="103.765549">
<ele>587.6</ele>
<time>2011-04-25T08:32:05Z</time>
<desc>lat.=22.154444, lon.=103.765549, Alt.=580.367676m. Speed=12.132000m/h.</desc>
<speed>3.370000</speed>
</trkpt>
<trkpt lat="22.154383" lon="103.768829">
<ele>599.7</ele>
<time>2011-04-25T08:33:55Z</time>
<desc>lat.=22.154383, lon.=103.768829, Alt.=593.227051m. Speed=12.996000m/h.</desc>
<speed>3.610000</speed>
</trkpt>
<trkpt lat="22.154222" lon="103.769608">
<ele>604.0</ele>
<time>2011-04-25T08:34:25Z</time>
<desc>lat.=22.154222, lon.=103.769608, Alt.=594.945801m. Speed=8.424000m/h.</desc>
<speed>2.340000</speed>
</trkpt>
<trkpt lat="22.151651" lon="103.773659">
<ele>616.1</ele>
<time>2011-04-25T08:36:50Z</time>
<desc>lat.=22.151651, lon.=103.773659, Alt.=604.352051m. Speed=10.548000m/h.</desc>
<speed>2.930000</speed>
</trkpt>
<trkpt lat="22.147497" lon="103.776756">
<ele>610.6</ele>
<time>2011-04-25T08:38:15Z</time>
<desc>lat.=22.147497, lon.=103.776756, Alt.=605.070801m. Speed=19.440001m/h.</desc>
<speed>5.400000</speed>
</trkpt>
<trkpt lat="22.146887" lon="103.777473">
<ele>620.2</ele>
<time>2011-04-25T08:38:35Z</time>
<desc>lat.=22.146887, lon.=103.777473, Alt.=603.117676m. Speed=18.180000m/h.</desc>
<speed>5.050000</speed>
</trkpt>
<trkpt lat="22.146206" lon="103.777802">
<ele>612.0</ele>
<time>2011-04-25T08:38:50Z</time>
<desc>lat.=22.146206, lon.=103.777802, Alt.=608.070801m. Speed=19.188000m/h.</desc>
<speed>5.330000</speed>
</trkpt>
<trkpt lat="22.145512" lon="103.778816">
<ele>611.4</ele>
<time>2011-04-25T08:39:10Z</time>
<desc>lat.=22.145512, lon.=103.778816, Alt.=605.477051m. Speed=21.455999m/h.</desc>
<speed>5.960000</speed>
</trkpt>
<trkpt lat="22.144867" lon="103.779457">
<ele>608.6</ele>
<time>2011-04-25T08:39:25Z</time>
<desc>lat.=22.144867, lon.=103.779457, Alt.=602.242676m. Speed=22.752001m/h.</desc>
<speed>6.320000</speed>
</trkpt>
<trkpt lat="22.142878" lon="103.780037">
<ele>613.3</ele>
<time>2011-04-25T08:40:10Z</time>
<desc>lat.=22.142878, lon.=103.780037, Alt.=608.727051m. Speed=15.408000m/h.</desc>
<speed>4.280000</speed>
</trkpt>
<trkpt lat="22.142057" lon="103.780724">
<ele>612.8</ele>
<time>2011-04-25T08:40:35Z</time>
<desc>lat.=22.142057, lon.=103.780724, Alt.=605.336426m. Speed=14.760000m/h.</desc>
<speed>4.100000</speed>
</trkpt>
<trkpt lat="22.140100" lon="103.781654">
<ele>617.4</ele>
<time>2011-04-25T08:41:40Z</time>
<desc>lat.=22.140100, lon.=103.781654, Alt.=611.242676m. Speed=12.168000m/h.</desc>
<speed>3.380000</speed>
</trkpt>
<trkpt lat="22.138338" lon="103.783066">
<ele>609.1</ele>
<time>2011-04-25T08:42:15Z</time>
<desc>lat.=22.138338, lon.=103.783066, Alt.=602.555176m. Speed=17.496000m/h.</desc>
<speed>4.860000</speed>
</trkpt>
<trkpt lat="22.134996" lon="103.787117">
<ele>603.3</ele>
<time>2011-04-25T08:52:00Z</time>
<desc>lat.=22.134996, lon.=103.787117, Alt.=594.586426m. Speed=35.604000m/h.</desc>
<speed>9.890000</speed>
</trkpt>
<trkpt lat="22.133121" lon="103.788933">
<ele>606.9</ele>
<time>2011-04-25T08:52:35Z</time>
<desc>lat.=22.133121, lon.=103.788933, Alt.=598.914551m. Speed=16.596001m/h.</desc>
<speed>4.610000</speed>
</trkpt>
<trkpt lat="22.131840" lon="103.790413">
<ele>609.9</ele>
<time>2011-04-25T08:53:10Z</time>
<desc>lat.=22.131840, lon.=103.790413, Alt.=603.867676m. Speed=23.580000m/h.</desc>
<speed>6.550000</speed>
</trkpt>
<trkpt lat="22.129461" lon="103.791679">
<ele>613.4</ele>
<time>2011-04-25T08:53:55Z</time>
<desc>lat.=22.129461, lon.=103.791679, Alt.=602.570801m. Speed=24.768000m/h.</desc>
<speed>6.880000</speed>
</trkpt>
<trkpt lat="22.127062" lon="103.794693">
<ele>615.6</ele>
<time>2011-04-25T08:55:00Z</time>
<desc>lat.=22.127062, lon.=103.794693, Alt.=607.508301m. Speed=13.320000m/h.</desc>
<speed>3.700000</speed>
</trkpt>
<trkpt lat="22.125847" lon="103.796692">
<ele>623.8</ele>
<time>2011-04-25T08:56:00Z</time>
<desc>lat.=22.125847, lon.=103.796692, Alt.=615.586426m. Speed=14.400000m/h.</desc>
<speed>4.000000</speed>
</trkpt>
<trkpt lat="22.125111" lon="103.798851">
<ele>625.2</ele>
<time>2011-04-25T08:56:50Z</time>
<desc>lat.=22.125111, lon.=103.798851, Alt.=610.883301m. Speed=15.552000m/h.</desc>
<speed>4.320000</speed>
</trkpt>
<trkpt lat="22.124146" lon="103.799706">
<ele>626.6</ele>
<time>2011-04-25T08:57:25Z</time>
<desc>lat.=22.124146, lon.=103.799706, Alt.=620.039551m. Speed=15.084000m/h.</desc>
<speed>4.190000</speed>
</trkpt>
<trkpt lat="22.123966" lon="103.800316">
<ele>625.1</ele>
<time>2011-04-25T08:57:40Z</time>
<desc>lat.=22.123966, lon.=103.800316, Alt.=619.523926m. Speed=14.580000m/h.</desc>
<speed>4.050000</speed>
</trkpt>
<trkpt lat="22.124783" lon="103.801117">
<ele>627.3</ele>
<time>2011-04-25T08:58:10Z</time>
<desc>lat.=22.124783, lon.=103.801117, Alt.=616.195801m. Speed=10.044000m/h.</desc>
<speed>2.790000</speed>
</trkpt>
<trkpt lat="22.124977" lon="103.801720">
<ele>633.0</ele>
<time>2011-04-25T08:58:35Z</time>
<desc>lat.=22.124977, lon.=103.801720, Alt.=615.195801m. Speed=6.480000m/h.</desc>
<speed>1.800000</speed>
</trkpt>
<trkpt lat="22.124943" lon="103.802048">
<ele>639.1</ele>
<time>2011-04-25T08:58:55Z</time>
<desc>lat.=22.124943, lon.=103.802048, Alt.=618.977051m. Speed=4.032000m/h.</desc>
<speed>1.120000</speed>
</trkpt>
<trkpt lat="22.124523" lon="103.802628">
<ele>641.5</ele>
<time>2011-04-25T08:59:45Z</time>
<desc>lat.=22.124523, lon.=103.802628, Alt.=629.820801m. Speed=4.860000m/h.</desc>
<speed>1.350000</speed>
</trkpt>
<trkpt lat="22.124762" lon="103.803749">
<ele>655.1</ele>
<time>2011-04-25T09:01:20Z</time>
<desc>lat.=22.124762, lon.=103.803749, Alt.=654.492676m. Speed=5.436000m/h.</desc>
<speed>1.510000</speed>
</trkpt>
<trkpt lat="22.126291" lon="103.805191">
<ele>672.2</ele>
<time>2011-04-25T09:06:55Z</time>
<desc>lat.=22.126291, lon.=103.805191, Alt.=664.914551m. Speed=8.208000m/h.</desc>
<speed>2.280000</speed>
</trkpt>
<trkpt lat="22.126245" lon="103.805412">
<ele>679.5</ele>
<time>2011-04-25T09:07:10Z</time>
<desc>lat.=22.126245, lon.=103.805412, Alt.=667.586426m. Speed=7.272000m/h.</desc>
<speed>2.020000</speed>
</trkpt>
<trkpt lat="22.125370" lon="103.805588">
<ele>675.5</ele>
<time>2011-04-25T09:08:15Z</time>
<desc>lat.=22.125370, lon.=103.805588, Alt.=668.117676m. Speed=4.680000m/h.</desc>
<speed>1.300000</speed>
</trkpt>
<trkpt lat="22.125147" lon="103.805885">
<ele>679.4</ele>
<time>2011-04-25T09:08:40Z</time>
<desc>lat.=22.125147, lon.=103.805885, Alt.=669.836426m. Speed=3.780000m/h.</desc>
<speed>1.050000</speed>
</trkpt>
<trkpt lat="22.124861" lon="103.807068">
<ele>684.9</ele>
<time>2011-04-25T09:09:40Z</time>
<desc>lat.=22.124861, lon.=103.807068, Alt.=678.836426m. Speed=5.940000m/h.</desc>
<speed>1.650000</speed>
</trkpt>
<trkpt lat="22.124918" lon="103.807495">
<ele>680.0</ele>
<time>2011-04-25T09:10:05Z</time>
<desc>lat.=22.124918, lon.=103.807495, Alt.=686.289551m. Speed=4.716000m/h.</desc>
<speed>1.310000</speed>
</trkpt>
<trkpt lat="22.125277" lon="103.807953">
<ele>685.4</ele>
<time>2011-04-25T09:10:45Z</time>
<desc>lat.=22.125277, lon.=103.807953, Alt.=699.258301m. Speed=6.048000m/h.</desc>
<speed>1.680000</speed>
</trkpt>
<trkpt lat="22.125996" lon="103.808334">
<ele>696.4</ele>
<time>2011-04-25T09:11:35Z</time>
<desc>lat.=22.125996, lon.=103.808334, Alt.=706.383301m. Speed=4.644000m/h.</desc>
<speed>1.290000</speed>
</trkpt>
<trkpt lat="22.126272" lon="103.808952">
<ele>700.0</ele>
<time>2011-04-25T09:12:10Z</time>
<desc>lat.=22.126272, lon.=103.808952, Alt.=709.164551m. Speed=7.884000m/h.</desc>
<speed>2.190000</speed>
</trkpt>
<trkpt lat="22.126745" lon="103.809502">
<ele>720.0</ele>
<time>2011-04-25T09:12:50Z</time>
<desc>lat.=22.126745, lon.=103.809502, Alt.=710.477051m. Speed=6.696000m/h.</desc>
<speed>1.860000</speed>
</trkpt>
<trkpt lat="22.126640" lon="103.809700">
<ele>734.6</ele>
<time>2011-04-25T09:13:00Z</time>
<desc>lat.=22.126640, lon.=103.809700, Alt.=711.742676m. Speed=7.668000m/h.</desc>
<speed>2.130000</speed>
</trkpt>
<trkpt lat="22.126143" lon="103.809837">
<ele>748.5</ele>
<time>2011-04-25T09:13:30Z</time>
<desc>lat.=22.126143, lon.=103.809837, Alt.=716.242676m. Speed=5.364000m/h.</desc>
<speed>1.490000</speed>
</trkpt>
<trkpt lat="22.125544" lon="103.809647">
<ele>739.0</ele>
<time>2011-04-25T09:14:05Z</time>
<desc>lat.=22.125544, lon.=103.809647, Alt.=716.602051m. Speed=8.640000m/h.</desc>
<speed>2.400000</speed>
</trkpt>
<trkpt lat="22.125069" lon="103.809769">
<ele>717.3</ele>
<time>2011-04-25T09:15:25Z</time>
<desc>lat.=22.125069, lon.=103.809769, Alt.=720.008301m. Speed=0.072000m/h.</desc>
<speed>0.020000</speed>
</trkpt>
<trkpt lat="22.125128" lon="103.810188">
<ele>717.8</ele>
<time>2011-04-25T09:16:00Z</time>
<desc>lat.=22.125128, lon.=103.810188, Alt.=720.195801m. Speed=8.676000m/h.</desc>
<speed>2.410000</speed>
</trkpt>
<trkpt lat="22.125673" lon="103.811142">
<ele>737.8</ele>
<time>2011-04-25T09:16:55Z</time>
<desc>lat.=22.125673, lon.=103.811142, Alt.=733.023926m. Speed=4.572000m/h.</desc>
<speed>1.270000</speed>
</trkpt>
<trkpt lat="22.125544" lon="103.811508">
<ele>754.2</ele>
<time>2011-04-25T09:17:10Z</time>
<desc>lat.=22.125544, lon.=103.811508, Alt.=739.633301m. Speed=8.100000m/h.</desc>
<speed>2.250000</speed>
</trkpt>
<trkpt lat="22.123995" lon="103.811508">
<ele>751.6</ele>
<time>2011-04-25T09:18:25Z</time>
<desc>lat.=22.123995, lon.=103.811508, Alt.=739.992676m. Speed=8.784000m/h.</desc>
<speed>2.440000</speed>
</trkpt>
<trkpt lat="22.123394" lon="103.811897">
<ele>741.1</ele>
<time>2011-04-25T09:18:55Z</time>
<desc>lat.=22.123394, lon.=103.811897, Alt.=737.664551m. Speed=8.712000m/h.</desc>
<speed>2.420000</speed>
</trkpt>
<trkpt lat="22.123287" lon="103.812584">
<ele>740.5</ele>
<time>2011-04-25T09:19:25Z</time>
<desc>lat.=22.123287, lon.=103.812584, Alt.=746.133301m. Speed=0.396000m/h.</desc>
<speed>0.110000</speed>
</trkpt>
<trkpt lat="22.123737" lon="103.814087">
<ele>760.3</ele>
<time>2011-04-25T09:21:05Z</time>
<desc>lat.=22.123737, lon.=103.814087, Alt.=760.914551m. Speed=6.696000m/h.</desc>
<speed>1.860000</speed>
</trkpt>
<trkpt lat="22.123566" lon="103.814865">
<ele>779.8</ele>
<time>2011-04-25T09:21:45Z</time>
<desc>lat.=22.123566, lon.=103.814865, Alt.=772.383301m. Speed=4.428000m/h.</desc>
<speed>1.230000</speed>
</trkpt>
<trkpt lat="22.123138" lon="103.814194">
<ele>772.7</ele>
<time>2011-04-25T09:22:25Z</time>
<desc>lat.=22.123138, lon.=103.814194, Alt.=791.961426m. Speed=8.928000m/h.</desc>
<speed>2.480000</speed>
</trkpt>
<trkpt lat="22.122524" lon="103.814201">
<ele>781.0</ele>
<time>2011-04-25T09:22:50Z</time>
<desc>lat.=22.122524, lon.=103.814201, Alt.=790.352051m. Speed=7.668000m/h.</desc>
<speed>2.130000</speed>
</trkpt>
<trkpt lat="22.121626" lon="103.814941">
<ele>790.8</ele>
<time>2011-04-25T09:23:40Z</time>
<desc>lat.=22.121626, lon.=103.814941, Alt.=775.414551m. Speed=4.356000m/h.</desc>
<speed>1.210000</speed>
</trkpt>
<trkpt lat="22.120909" lon="103.814941">
<ele>790.7</ele>
<time>2011-04-25T09:24:20Z</time>
<desc>lat.=22.120909, lon.=103.814941, Alt.=776.211426m. Speed=5.976000m/h.</desc>
<speed>1.660000</speed>
</trkpt>
<trkpt lat="22.120543" lon="103.815140">
<ele>787.2</ele>
<time>2011-04-25T09:24:45Z</time>
<desc>lat.=22.120543, lon.=103.815140, Alt.=776.289551m. Speed=5.148000m/h.</desc>
<speed>1.430000</speed>
</trkpt>
<trkpt lat="22.119822" lon="103.816071">
<ele>801.2</ele>
<time>2011-04-25T09:26:05Z</time>
<desc>lat.=22.119822, lon.=103.816071, Alt.=783.914551m. Speed=9.864000m/h.</desc>
<speed>2.740000</speed>
</trkpt>
<trkpt lat="22.119032" lon="103.816307">
<ele>801.6</ele>
<time>2011-04-25T09:27:00Z</time>
<desc>lat.=22.119032, lon.=103.816307, Alt.=790.758301m. Speed=6.876000m/h.</desc>
<speed>1.910000</speed>
</trkpt>
<trkpt lat="22.118359" lon="103.817108">
<ele>821.2</ele>
<time>2011-04-25T09:28:00Z</time>
<desc>lat.=22.118359, lon.=103.817108, Alt.=792.789551m. Speed=6.012000m/h.</desc>
<speed>1.670000</speed>
</trkpt>
<trkpt lat="22.117428" lon="103.817444">
<ele>817.4</ele>
<time>2011-04-25T09:29:00Z</time>
<desc>lat.=22.117428, lon.=103.817444, Alt.=803.305176m. Speed=7.092000m/h.</desc>
<speed>1.970000</speed>
</trkpt>
<trkpt lat="22.117002" lon="103.817886">
<ele>832.1</ele>
<time>2011-04-25T09:29:30Z</time>
<desc>lat.=22.117002, lon.=103.817886, Alt.=809.305176m. Speed=6.948000m/h.</desc>
<speed>1.930000</speed>
</trkpt>
<trkpt lat="22.116463" lon="103.818069">
<ele>824.3</ele>
<time>2011-04-25T09:30:00Z</time>
<desc>lat.=22.116463, lon.=103.818069, Alt.=821.398926m. Speed=7.596000m/h.</desc>
<speed>2.110000</speed>
</trkpt>
<trkpt lat="22.116100" lon="103.818672">
<ele>830.2</ele>
<time>2011-04-25T09:30:35Z</time>
<desc>lat.=22.116100, lon.=103.818672, Alt.=824.773926m. Speed=8.136000m/h.</desc>
<speed>2.260000</speed>
</trkpt>
<trkpt lat="22.115669" lon="103.819008">
<ele>832.7</ele>
<time>2011-04-25T09:31:00Z</time>
<desc>lat.=22.115669, lon.=103.819008, Alt.=825.805176m. Speed=8.712000m/h.</desc>
<speed>2.420000</speed>
</trkpt>
<trkpt lat="22.114786" lon="103.818954">
<ele>832.6</ele>
<time>2011-04-25T09:57:20Z</time>
<desc>lat.=22.114786, lon.=103.818954, Alt.=821.352051m. Speed=10.296000m/h.</desc>
<speed>2.860000</speed>
</trkpt>
<trkpt lat="22.113337" lon="103.820000">
<ele>816.2</ele>
<time>2011-04-25T09:57:45Z</time>
<desc>lat.=22.113337, lon.=103.820000, Alt.=807.648926m. Speed=45.576000m/h.</desc>
<speed>12.660000</speed>
</trkpt>
<trkpt lat="22.111082" lon="103.820526">
<ele>794.6</ele>
<time>2011-04-25T09:58:05Z</time>
<desc>lat.=22.111082, lon.=103.820526, Alt.=788.555176m. Speed=31.968000m/h.</desc>
<speed>8.880000</speed>
</trkpt>
<trkpt lat="22.111132" lon="103.820885">
<ele>794.4</ele>
<time>2011-04-25T09:58:10Z</time>
<desc>lat.=22.111132, lon.=103.820885, Alt.=786.945801m. Speed=31.500000m/h.</desc>
<speed>8.750000</speed>
</trkpt>
<trkpt lat="22.111929" lon="103.821480">
<ele>786.5</ele>
<time>2011-04-25T09:58:20Z</time>
<desc>lat.=22.111929, lon.=103.821480, Alt.=779.852051m. Speed=35.675999m/h.</desc>
<speed>9.910000</speed>
</trkpt>
<trkpt lat="22.111996" lon="103.821907">
<ele>786.9</ele>
<time>2011-04-25T09:58:25Z</time>
<desc>lat.=22.111996, lon.=103.821907, Alt.=775.930176m. Speed=30.167999m/h.</desc>
<speed>8.380000</speed>
</trkpt>
<trkpt lat="22.111252" lon="103.822479">
<ele>779.5</ele>
<time>2011-04-25T09:58:35Z</time>
<desc>lat.=22.111252, lon.=103.822479, Alt.=767.711426m. Speed=39.492001m/h.</desc>
<speed>10.970000</speed>
</trkpt>
<trkpt lat="22.108669" lon="103.822739">
<ele>764.3</ele>
<time>2011-04-25T09:59:05Z</time>
<desc>lat.=22.108669, lon.=103.822739, Alt.=748.727051m. Speed=25.848000m/h.</desc>
<speed>7.180000</speed>
</trkpt>
<trkpt lat="22.107307" lon="103.823227">
<ele>750.7</ele>
<time>2011-04-25T09:59:20Z</time>
<desc>lat.=22.107307, lon.=103.823227, Alt.=739.414551m. Speed=47.591999m/h.</desc>
<speed>13.220000</speed>
</trkpt>
<trkpt lat="22.105518" lon="103.823532">
<ele>725.5</ele>
<time>2011-04-25T09:59:35Z</time>
<desc>lat.=22.105518, lon.=103.823532, Alt.=725.898926m. Speed=42.408001m/h.</desc>
<speed>11.780000</speed>
</trkpt>
<trkpt lat="22.105179" lon="103.823982">
<ele>721.3</ele>
<time>2011-04-25T09:59:40Z</time>
<desc>lat.=22.105179, lon.=103.823982, Alt.=717.398926m. Speed=42.804001m/h.</desc>
<speed>11.890000</speed>
</trkpt>
<trkpt lat="22.105518" lon="103.825050">
<ele>716.6</ele>
<time>2011-04-25T09:59:50Z</time>
<desc>lat.=22.105518, lon.=103.825050, Alt.=711.148926m. Speed=40.967999m/h.</desc>
<speed>11.380000</speed>
</trkpt>
<trkpt lat="22.105339" lon="103.825279">
<ele>714.7</ele>
<time>2011-04-25T09:59:55Z</time>
<desc>lat.=22.105339, lon.=103.825279, Alt.=707.852051m. Speed=27.900000m/h.</desc>
<speed>7.750000</speed>
</trkpt>
<trkpt lat="22.103899" lon="103.824928">
<ele>702.3</ele>
<time>2011-04-25T10:00:10Z</time>
<desc>lat.=22.103899, lon.=103.824928, Alt.=700.414551m. Speed=41.580002m/h.</desc>
<speed>11.550001</speed>
</trkpt>
<trkpt lat="22.103239" lon="103.825043">
<ele>699.3</ele>
<time>2011-04-25T10:19:15Z</time>
<desc>lat.=22.103239, lon.=103.825043, Alt.=691.977051m. Speed=24.372000m/h.</desc>
<speed>6.770000</speed>
</trkpt>
<trkpt lat="22.101801" lon="103.826347">
<ele>681.7</ele>
<time>2011-04-25T10:19:35Z</time>
<desc>lat.=22.101801, lon.=103.826347, Alt.=689.086426m. Speed=46.332001m/h.</desc>
<speed>12.870000</speed>
</trkpt>
<trkpt lat="22.096033" lon="103.834236">
<ele>660.1</ele>
<time>2011-04-25T10:21:35Z</time>
<desc>lat.=22.096033, lon.=103.834236, Alt.=647.242676m. Speed=36.216000m/h.</desc>
<speed>10.060000</speed>
</trkpt>
<trkpt lat="22.095192" lon="103.834785">
<ele>659.3</ele>
<time>2011-04-25T10:21:45Z</time>
<desc>lat.=22.095192, lon.=103.834785, Alt.=641.477051m. Speed=38.591999m/h.</desc>
<speed>10.720000</speed>
</trkpt>
<trkpt lat="22.094257" lon="103.834999">
<ele>654.5</ele>
<time>2011-04-25T10:21:55Z</time>
<desc>lat.=22.094257, lon.=103.834999, Alt.=639.352051m. Speed=39.995998m/h.</desc>
<speed>11.110000</speed>
</trkpt>
<trkpt lat="22.093779" lon="103.835274">
<ele>650.0</ele>
<time>2011-04-25T10:22:00Z</time>
<desc>lat.=22.093779, lon.=103.835274, Alt.=636.883301m. Speed=39.456001m/h.</desc>
<speed>10.960000</speed>
</trkpt>
<trkpt lat="22.092756" lon="103.835320">
<ele>651.7</ele>
<time>2011-04-25T10:22:15Z</time>
<desc>lat.=22.092756, lon.=103.835320, Alt.=633.555176m. Speed=25.379999m/h.</desc>
<speed>7.050000</speed>
</trkpt>
<trkpt lat="22.092142" lon="103.835632">
<ele>647.0</ele>
<time>2011-04-25T10:22:25Z</time>
<desc>lat.=22.092142, lon.=103.835632, Alt.=633.164551m. Speed=29.375999m/h.</desc>
<speed>8.160000</speed>
</trkpt>
<trkpt lat="22.091824" lon="103.836334">
<ele>641.2</ele>
<time>2011-04-25T10:22:35Z</time>
<desc>lat.=22.091824, lon.=103.836334, Alt.=632.086426m. Speed=31.427999m/h.</desc>
<speed>8.730000</speed>
</trkpt>
<trkpt lat="22.091627" lon="103.838440">
<ele>638.5</ele>
<time>2011-04-25T10:23:00Z</time>
<desc>lat.=22.091627, lon.=103.838440, Alt.=625.430176m. Speed=28.440001m/h.</desc>
<speed>7.900000</speed>
</trkpt>
<trkpt lat="22.091326" lon="103.838722">
<ele>639.5</ele>
<time>2011-04-25T10:23:05Z</time>
<desc>lat.=22.091326, lon.=103.838722, Alt.=627.367676m. Speed=29.952000m/h.</desc>
<speed>8.320000</speed>
</trkpt>
<trkpt lat="22.090965" lon="103.838814">
<ele>639.1</ele>
<time>2011-04-25T10:23:10Z</time>
<desc>lat.=22.090965, lon.=103.838814, Alt.=627.055176m. Speed=34.127998m/h.</desc>
<speed>9.480000</speed>
</trkpt>
<trkpt lat="22.089994" lon="103.838524">
<ele>632.5</ele>
<time>2011-04-25T10:23:20Z</time>
<desc>lat.=22.089994, lon.=103.838524, Alt.=625.148926m. Speed=30.816000m/h.</desc>
<speed>8.560000</speed>
</trkpt>
<trkpt lat="22.089180" lon="103.839622">
<ele>633.7</ele>
<time>2011-04-25T10:23:35Z</time>
<desc>lat.=22.089180, lon.=103.839622, Alt.=618.242676m. Speed=36.287998m/h.</desc>
<speed>10.079999</speed>
</trkpt>
<trkpt lat="22.088354" lon="103.839615">
<ele>631.6</ele>
<time>2011-04-25T10:23:45Z</time>
<desc>lat.=22.088354, lon.=103.839615, Alt.=618.117676m. Speed=31.068001m/h.</desc>
<speed>8.630000</speed>
</trkpt>
<trkpt lat="22.088081" lon="103.839851">
<ele>624.8</ele>
<time>2011-04-25T10:23:50Z</time>
<desc>lat.=22.088081, lon.=103.839851, Alt.=616.914551m. Speed=28.403999m/h.</desc>
<speed>7.890000</speed>
</trkpt>
<trkpt lat="22.087654" lon="103.840637">
<ele>623.9</ele>
<time>2011-04-25T10:24:00Z</time>
<desc>lat.=22.087654, lon.=103.840637, Alt.=613.242676m. Speed=32.256001m/h.</desc>
<speed>8.960000</speed>
</trkpt>
<trkpt lat="22.086811" lon="103.841545">
<ele>622.6</ele>
<time>2011-04-25T10:24:15Z</time>
<desc>lat.=22.086811, lon.=103.841545, Alt.=616.148926m. Speed=30.275999m/h.</desc>
<speed>8.410000</speed>
</trkpt>
<trkpt lat="22.086145" lon="103.841553">
<ele>627.2</ele>
<time>2011-04-25T10:24:25Z</time>
<desc>lat.=22.086145, lon.=103.841553, Alt.=618.367676m. Speed=25.596001m/h.</desc>
<speed>7.110000</speed>
</trkpt>
<trkpt lat="22.085585" lon="103.841293">
<ele>625.3</ele>
<time>2011-04-25T10:24:35Z</time>
<desc>lat.=22.085585, lon.=103.841293, Alt.=618.570801m. Speed=21.924000m/h.</desc>
<speed>6.090000</speed>
</trkpt>
<trkpt lat="22.084717" lon="103.841515">
<ele>620.8</ele>
<time>2011-04-25T10:24:50Z</time>
<desc>lat.=22.084717, lon.=103.841515, Alt.=619.727051m. Speed=26.712000m/h.</desc>
<speed>7.420000</speed>
</trkpt>
<trkpt lat="22.084007" lon="103.841980">
<ele>617.6</ele>
<time>2011-04-25T10:25:00Z</time>
<desc>lat.=22.084007, lon.=103.841980, Alt.=618.539551m. Speed=32.652000m/h.</desc>
<speed>9.070000</speed>
</trkpt>
<trkpt lat="22.082737" lon="103.842300">
<ele>606.0</ele>
<time>2011-04-25T10:25:15Z</time>
<desc>lat.=22.082737, lon.=103.842300, Alt.=615.227051m. Speed=34.812000m/h.</desc>
<speed>9.670000</speed>
</trkpt>
<trkpt lat="22.082094" lon="103.842865">
<ele>612.9</ele>
<time>2011-04-25T10:25:25Z</time>
<desc>lat.=22.082094, lon.=103.842865, Alt.=612.055176m. Speed=26.568001m/h.</desc>
<speed>7.380000</speed>
</trkpt>
<trkpt lat="22.079826" lon="103.844246">
<ele>613.0</ele>
<time>2011-04-25T10:26:20Z</time>
<desc>lat.=22.079826, lon.=103.844246, Alt.=603.773926m. Speed=22.212000m/h.</desc>
<speed>6.170000</speed>
</trkpt>
<trkpt lat="22.078751" lon="103.845108">
<ele>603.8</ele>
<time>2011-04-25T10:26:40Z</time>
<desc>lat.=22.078751, lon.=103.845108, Alt.=598.773926m. Speed=28.908001m/h.</desc>
<speed>8.030000</speed>
</trkpt>
<trkpt lat="22.078186" lon="103.845955">
<ele>595.6</ele>
<time>2011-04-25T10:26:55Z</time>
<desc>lat.=22.078186, lon.=103.845955, Alt.=593.289551m. Speed=25.812000m/h.</desc>
<speed>7.170000</speed>
</trkpt>
<trkpt lat="22.078764" lon="103.847130">
<ele>592.0</ele>
<time>2011-04-25T10:27:15Z</time>
<desc>lat.=22.078764, lon.=103.847130, Alt.=587.727051m. Speed=23.076000m/h.</desc>
<speed>6.410000</speed>
</trkpt>
<trkpt lat="22.078732" lon="103.847496">
<ele>592.4</ele>
<time>2011-04-25T10:27:20Z</time>
<desc>lat.=22.078732, lon.=103.847496, Alt.=587.023926m. Speed=25.271999m/h.</desc>
<speed>7.020000</speed>
</trkpt>
<trkpt lat="22.078157" lon="103.848656">
<ele>604.0</ele>
<time>2011-04-25T10:27:40Z</time>
<desc>lat.=22.078157, lon.=103.848656, Alt.=589.008301m. Speed=19.584000m/h.</desc>
<speed>5.440000</speed>
</trkpt>
<trkpt lat="22.077654" lon="103.848663">
<ele>610.0</ele>
<time>2011-04-25T10:27:50Z</time>
<desc>lat.=22.077654, lon.=103.848663, Alt.=593.227051m. Speed=19.872000m/h.</desc>
<speed>5.520000</speed>
</trkpt>
<trkpt lat="22.077091" lon="103.848114">
<ele>609.0</ele>
<time>2011-04-25T10:28:05Z</time>
<desc>lat.=22.077091, lon.=103.848114, Alt.=597.617676m. Speed=19.511999m/h.</desc>
<speed>5.420000</speed>
</trkpt>
<trkpt lat="22.076342" lon="103.847679">
<ele>600.9</ele>
<time>2011-04-25T10:28:20Z</time>
<desc>lat.=22.076342, lon.=103.847679, Alt.=598.805176m. Speed=18.216000m/h.</desc>
<speed>5.060000</speed>
</trkpt>
<trkpt lat="22.075876" lon="103.847710">
<ele>599.4</ele>
<time>2011-04-25T10:28:30Z</time>
<desc>lat.=22.075876, lon.=103.847710, Alt.=601.648926m. Speed=18.612000m/h.</desc>
<speed>5.170000</speed>
</trkpt>
<trkpt lat="22.075453" lon="103.848160">
<ele>597.4</ele>
<time>2011-04-25T10:28:40Z</time>
<desc>lat.=22.075453, lon.=103.848160, Alt.=597.773926m. Speed=27.180000m/h.</desc>
<speed>7.550000</speed>
</trkpt>
<trkpt lat="22.075367" lon="103.848938">
<ele>592.7</ele>
<time>2011-04-25T10:28:50Z</time>
<desc>lat.=22.075367, lon.=103.848938, Alt.=592.258301m. Speed=32.976002m/h.</desc>
<speed>9.160000</speed>
</trkpt>
<trkpt lat="22.075159" lon="103.849319">
<ele>595.0</ele>
<time>2011-04-25T10:28:55Z</time>
<desc>lat.=22.075159, lon.=103.849319, Alt.=594.148926m. Speed=30.275999m/h.</desc>
<speed>8.410000</speed>
</trkpt>
<trkpt lat="22.074047" lon="103.850243">
<ele>582.4</ele>
<time>2011-04-25T10:29:25Z</time>
<desc>lat.=22.074047, lon.=103.850243, Alt.=594.945801m. Speed=15.876000m/h.</desc>
<speed>4.410000</speed>
</trkpt>
<trkpt lat="22.073532" lon="103.851486">
<ele>578.3</ele>
<time>2011-04-25T10:35:20Z</time>
<desc>lat.=22.073532, lon.=103.851486, Alt.=583.445801m. Speed=8.352000m/h.</desc>
<speed>2.320000</speed>
</trkpt>
<trkpt lat="22.072594" lon="103.852501">
<ele>584.7</ele>
<time>2011-04-25T10:36:25Z</time>
<desc>lat.=22.072594, lon.=103.852501, Alt.=584.102051m. Speed=2.124000m/h.</desc>
<speed>0.590000</speed>
</trkpt>
<trkpt lat="22.073488" lon="103.851639">
<ele>576.8</ele>
<time>2011-04-25T10:37:00Z</time>
<desc>lat.=22.073488, lon.=103.851639, Alt.=587.133301m. Speed=16.920000m/h.</desc>
<speed>4.700000</speed>
</trkpt>
<trkpt lat="22.073776" lon="103.851006">
<ele>581.6</ele>
<time>2011-04-25T10:38:35Z</time>
<desc>lat.=22.073776, lon.=103.851006, Alt.=591.867676m. Speed=0.432000m/h.</desc>
<speed>0.120000</speed>
</trkpt>
<trkpt lat="22.073318" lon="103.851746">
<ele>574.2</ele>
<time>2011-04-25T10:39:40Z</time>
<desc>lat.=22.073318, lon.=103.851746, Alt.=594.867676m. Speed=20.016001m/h.</desc>
<speed>5.560000</speed>
</trkpt>
<trkpt lat="22.072243" lon="103.852745">
<ele>584.0</ele>
<time>2011-04-25T10:40:30Z</time>
<desc>lat.=22.072243, lon.=103.852745, Alt.=581.320801m. Speed=3.492000m/h.</desc>
<speed>0.970000</speed>
</trkpt>
<trkpt lat="22.072639" lon="103.852676">
<ele>595.4</ele>
<time>2011-04-25T10:43:05Z</time>
<desc>lat.=22.072639, lon.=103.852676, Alt.=580.586426m. Speed=0.036000m/h.</desc>
<speed>0.010000</speed>
</trkpt>
<trkpt lat="22.071619" lon="103.853065">
<ele>578.8</ele>
<time>2011-04-25T10:44:55Z</time>
<desc>lat.=22.071619, lon.=103.853065, Alt.=576.805176m. Speed=0.108000m/h.</desc>
<speed>0.030000</speed>
</trkpt>
<trkpt lat="22.072779" lon="103.852524">
<ele>590.0</ele>
<time>2011-04-25T10:45:45Z</time>
<desc>lat.=22.072779, lon.=103.852524, Alt.=579.039551m. Speed=0.072000m/h.</desc>
<speed>0.020000</speed>
</trkpt>
<trkpt lat="22.070890" lon="103.853424">
<ele>573.7</ele>
<time>2011-04-25T10:48:40Z</time>
<desc>lat.=22.070890, lon.=103.853424, Alt.=578.914551m. Speed=29.628000m/h.</desc>
<speed>8.230000</speed>
</trkpt>
<trkpt lat="22.069902" lon="103.854454">
<ele>565.1</ele>
<time>2011-04-25T10:48:55Z</time>
<desc>lat.=22.069902, lon.=103.854454, Alt.=578.055176m. Speed=36.720001m/h.</desc>
<speed>10.200000</speed>
</trkpt>
<trkpt lat="22.069616" lon="103.854851">
<ele>563.2</ele>
<time>2011-04-25T10:49:00Z</time>
<desc>lat.=22.069616, lon.=103.854851, Alt.=577.258301m. Speed=37.080002m/h.</desc>
<speed>10.300001</speed>
</trkpt>
<trkpt lat="22.068806" lon="103.856827">
<ele>572.7</ele>
<time>2011-04-25T10:49:25Z</time>
<desc>lat.=22.068806, lon.=103.856827, Alt.=573.586426m. Speed=14.688000m/h.</desc>
<speed>4.080000</speed>
</trkpt>
<trkpt lat="22.068094" lon="103.857201">
<ele>563.6</ele>
<time>2011-04-25T10:52:00Z</time>
<desc>lat.=22.068094, lon.=103.857201, Alt.=573.664551m. Speed=16.920000m/h.</desc>
<speed>4.700000</speed>
</trkpt>
<trkpt lat="22.067507" lon="103.858192">
<ele>576.1</ele>
<time>2011-04-25T10:52:25Z</time>
<desc>lat.=22.067507, lon.=103.858192, Alt.=571.648926m. Speed=13.824000m/h.</desc>
<speed>3.840000</speed>
</trkpt>
<trkpt lat="22.066919" lon="103.858444">
<ele>570.2</ele>
<time>2011-04-25T10:52:55Z</time>
<desc>lat.=22.066919, lon.=103.858444, Alt.=569.023926m. Speed=5.832000m/h.</desc>
<speed>1.620000</speed>
</trkpt>
<trkpt lat="22.066713" lon="103.859093">
<ele>584.5</ele>
<time>2011-04-25T10:54:05Z</time>
<desc>lat.=22.066713, lon.=103.859093, Alt.=571.102051m. Speed=7.236000m/h.</desc>
<speed>2.010000</speed>
</trkpt>
<trkpt lat="22.066282" lon="103.859436">
<ele>577.8</ele>
<time>2011-04-25T10:54:40Z</time>
<desc>lat.=22.066282, lon.=103.859436, Alt.=578.008301m. Speed=5.796000m/h.</desc>
<speed>1.610000</speed>
</trkpt>
<trkpt lat="22.066139" lon="103.859962">
<ele>594.0</ele>
<time>2011-04-25T10:55:15Z</time>
<desc>lat.=22.066139, lon.=103.859962, Alt.=583.617676m. Speed=6.480000m/h.</desc>
<speed>1.800000</speed>
</trkpt>
<trkpt lat="22.065729" lon="103.860260">
<ele>588.6</ele>
<time>2011-04-25T10:55:50Z</time>
<desc>lat.=22.065729, lon.=103.860260, Alt.=591.758301m. Speed=3.384000m/h.</desc>
<speed>0.940000</speed>
</trkpt>
<trkpt lat="22.064682" lon="103.862259">
<ele>608.6</ele>
<time>2011-04-25T10:58:30Z</time>
<desc>lat.=22.064682, lon.=103.862259, Alt.=609.570801m. Speed=4.140000m/h.</desc>
<speed>1.150000</speed>
</trkpt>
<trkpt lat="22.064703" lon="103.862564">
<ele>614.6</ele>
<time>2011-04-25T10:58:55Z</time>
<desc>lat.=22.064703, lon.=103.862564, Alt.=609.164551m. Speed=0.216000m/h.</desc>
<speed>0.060000</speed>
</trkpt>
<trkpt lat="22.064837" lon="103.862579">
<ele>611.0</ele>
<time>2011-04-25T10:59:35Z</time>
<desc>lat.=22.064837, lon.=103.862579, Alt.=609.633301m. Speed=0.612000m/h.</desc>
<speed>0.170000</speed>
</trkpt>
<trkpt lat="22.065067" lon="103.863052">
<ele>593.9</ele>
<time>2011-04-25T11:00:00Z</time>
<desc>lat.=22.065067, lon.=103.863052, Alt.=607.023926m. Speed=20.591999m/h.</desc>
<speed>5.720000</speed>
</trkpt>
<trkpt lat="22.065611" lon="103.863251">
<ele>597.1</ele>
<time>2011-04-25T11:00:10Z</time>
<desc>lat.=22.065611, lon.=103.863251, Alt.=602.352051m. Speed=25.020000m/h.</desc>
<speed>6.950000</speed>
</trkpt>
<trkpt lat="22.066212" lon="103.863777">
<ele>596.6</ele>
<time>2011-04-25T11:00:20Z</time>
<desc>lat.=22.066212, lon.=103.863777, Alt.=598.586426m. Speed=23.832001m/h.</desc>
<speed>6.620000</speed>
</trkpt>
<trkpt lat="22.066120" lon="103.864624">
<ele>602.6</ele>
<time>2011-04-25T11:00:35Z</time>
<desc>lat.=22.066120, lon.=103.864624, Alt.=595.758301m. Speed=15.444000m/h.</desc>
<speed>4.290000</speed>
</trkpt>
<trkpt lat="22.066753" lon="103.866608">
<ele>585.9</ele>
<time>2011-04-25T11:01:10Z</time>
<desc>lat.=22.066753, lon.=103.866608, Alt.=592.133301m. Speed=37.908001m/h.</desc>
<speed>10.530000</speed>
</trkpt>
<trkpt lat="22.066795" lon="103.867149">
<ele>587.2</ele>
<time>2011-04-25T11:01:15Z</time>
<desc>lat.=22.066795, lon.=103.867149, Alt.=591.211426m. Speed=40.931999m/h.</desc>
<speed>11.370000</speed>
</trkpt>
<trkpt lat="22.066319" lon="103.869034">
<ele>589.4</ele>
<time>2011-04-25T11:02:10Z</time>
<desc>lat.=22.066319, lon.=103.869034, Alt.=598.336426m. Speed=8.316000m/h.</desc>
<speed>2.310000</speed>
</trkpt>
<trkpt lat="22.064899" lon="103.871155">
<ele>593.2</ele>
<time>2011-04-25T11:03:15Z</time>
<desc>lat.=22.064899, lon.=103.871155, Alt.=616.367676m. Speed=10.476000m/h.</desc>
<speed>2.910000</speed>
</trkpt>
<trkpt lat="22.065161" lon="103.872620">
<ele>596.4</ele>
<time>2011-04-25T11:05:15Z</time>
<desc>lat.=22.065161, lon.=103.872620, Alt.=601.570801m. Speed=0.324000m/h.</desc>
<speed>0.090000</speed>
</trkpt>
<trkpt lat="22.065081" lon="103.871857">
<ele>594.6</ele>
<time>2011-04-25T11:11:50Z</time>
<desc>lat.=22.065081, lon.=103.871857, Alt.=597.742676m. Speed=1.800000m/h.</desc>
<speed>0.500000</speed>
</trkpt>
<trkpt lat="22.065474" lon="103.871864">
<ele>596.5</ele>
<time>2011-04-25T11:13:25Z</time>
<desc>lat.=22.065474, lon.=103.871864, Alt.=599.148926m. Speed=0.216000m/h.</desc>
<speed>0.060000</speed>
</trkpt>
<trkpt lat="22.065779" lon="103.872421">
<ele>599.3</ele>
<time>2011-04-25T11:15:10Z</time>
<desc>lat.=22.065779, lon.=103.872421, Alt.=601.758301m. Speed=3.708000m/h.</desc>
<speed>1.030000</speed>
</trkpt>
<trkpt lat="22.065790" lon="103.872726">
<ele>599.5</ele>
<time>2011-04-25T11:15:50Z</time>
<desc>lat.=22.065790, lon.=103.872726, Alt.=605.852051m. Speed=0.216000m/h.</desc>
<speed>0.060000</speed>
</trkpt>
</trkseg>
</trk>
</gpx>